Time;durP1;ratioP1;P1;durP2;ratioP2;P2;SDS_P1;SDS_P2;PMS_P1;PMS_P2;Temp;Humidity;BMP_temperature;BMP_pressure;BME280_temperature;BME280_humidity;BME280_pressure;Samples;Min_cycle;Max_cycle;Signal;HPM_P1;HPM_P2
2022/01/14 00:02:21;;;;;;;36.33;16.10;;;;;;;;;;10532738;28;20300;-69
2022/01/14 00:07:25;;;;;;;40.93;17.37;;;;;;;;;;10519960;28;20049;-70
2022/01/14 00:12:35;;;;;;;32.13;16.20;;;;;;;;;;10518346;28;20356;-69
2022/01/14 00:17:40;;;;;;;44.60;18.63;;;;;;;;;;10518969;28;20040;-70
2022/01/14 00:22:43;;;;;;;38.70;16.85;;;;;;;;;;10518201;28;20041;-69
2022/01/14 00:33:18;;;;;;;42.90;17.60;;;;;;;;;;10431535;28;20332;-70
2022/01/14 00:38:21;;;;;;;39.33;16.40;;;;;;;;;;10431451;28;20080;-69
2022/01/14 00:43:24;;;;;;;39.78;15.77;;;;;;;;;;10430327;28;20073;-70
2022/01/14 00:48:28;;;;;;;36.38;16.20;;;;;;;;;;10431203;28;20053;-71
2022/01/14 00:53:31;;;;;;;33.80;16.25;;;;;;;;;;10430927;28;20065;-69
2022/01/14 01:04:03;;;;;;;31.92;15.13;;;;;;;;;;10414497;28;20064;-70
2022/01/14 01:09:10;;;;;;;36.45;17.17;;;;;;;;;;10516903;28;20067;-70
2022/01/14 01:14:17;;;;;;;31.38;14.65;;;;;;;;;;10531221;28;20362;-69
2022/01/14 01:19:21;;;;;;;35.00;15.50;;;;;;;;;;10519014;28;20259;-68
2022/01/14 01:24:24;;;;;;;33.25;15.52;;;;;;;;;;10499496;28;20045;-70
2022/01/14 01:29:45;;;;;;;34.35;16.10;;;;;;;;;;10475455;28;20044;-69
2022/01/14 01:34:49;;;;;;;39.88;17.45;;;;;;;;;;10505927;28;20060;-69
2022/01/14 01:39:52;;;;;;;31.83;17.35;;;;;;;;;;10517274;28;20078;-70
2022/01/14 01:44:54;;;;;;;27.88;16.45;;;;;;;;;;10516627;28;20078;-70
2022/01/14 01:49:58;;;;;;;30.65;15.38;;;;;;;;;;10515518;28;20052;-70
2022/01/14 01:55:01;;;;;;;34.08;16.48;;;;;;;;;;10516073;28;20332;-70
2022/01/14 02:00:05;;;;;;;33.42;15.77;;;;;;;;;;10515772;28;20055;-70
2022/01/14 02:05:10;;;;;;;31.33;13.60;;;;;;;;;;10516005;28;20049;-70
2022/01/14 02:10:13;;;;;;;29.67;14.55;;;;;;;;;;10515312;28;20090;-70
2022/01/14 02:15:28;;;;;;;30.48;14.05;;;;;;;;;;10515055;28;20049;-70
2022/01/14 02:25:52;;;;;;;37.92;12.20;;;;;;;;;;10529399;28;20059;-69
2022/01/14 02:30:55;;;;;;;21.35;11.43;;;;;;;;;;10514798;28;20044;-70
2022/01/14 02:36:00;;;;;;;25.88;11.15;;;;;;;;;;10523630;28;20048;-70
2022/01/14 02:41:03;;;;;;;;;;;;;;;;;;10537756;28;20078;-70
2022/01/14 02:46:08;;;;;;;23.30;10.93;;;;;;;;;;10522527;28;19916;-69
2022/01/14 02:51:14;;;;;;;24.92;10.88;;;;;;;;;;10522768;28;20052;-69
2022/01/14 02:56:20;;;;;;;21.00;10.00;;;;;;;;;;10523850;28;20040;-70
2022/01/14 03:01:25;;;;;;;24.30;10.52;;;;;;;;;;10522528;28;20057;-69
2022/01/14 03:06:30;;;;;;;19.58;10.60;;;;;;;;;;10522860;28;20036;-70
2022/01/14 03:11:36;;;;;;;16.10;8.93;;;;;;;;;;10521479;28;20221;-69
2022/01/14 03:16:41;;;;;;;14.20;8.27;;;;;;;;;;10532904;28;20061;-70
2022/01/14 03:21:45;;;;;;;;;;;;;;;;;;10522799;28;20048;-70
2022/01/14 03:26:49;;;;;;;19.15;8.45;;;;;;;;;;10521256;28;20111;-70
2022/01/14 03:31:52;;;;;;;19.33;8.80;;;;;;;;;;10516308;28;20043;-69
2022/01/14 03:36:56;;;;;;;18.52;9.45;;;;;;;;;;10519680;28;20036;-70
2022/01/14 03:41:59;;;;;;;17.75;9.35;;;;;;;;;;10519850;28;20047;-70
2022/01/14 03:47:01;;;;;;;25.33;8.63;;;;;;;;;;10518521;28;20086;-70
2022/01/14 03:52:06;;;;;;;23.15;9.20;;;;;;;;;;10514740;28;20044;-70
2022/01/14 03:57:09;;;;;;;22.60;8.38;;;;;;;;;;10519540;28;20063;-69
2022/01/14 04:02:12;;;;;;;18.40;9.30;;;;;;;;;;10519076;28;20378;-70
2022/01/14 04:07:16;;;;;;;18.17;8.40;;;;;;;;;;10518965;28;20339;-69
2022/01/14 04:12:31;;;;;;;17.87;8.90;;;;;;;;;;10519371;28;20111;-69
2022/01/14 04:17:35;;;;;;;18.35;8.35;;;;;;;;;;10527480;28;20044;-70
2022/01/14 04:22:39;;;;;;;19.23;9.73;;;;;;;;;;10518367;28;20048;-69
2022/01/14 04:27:42;;;;;;;20.15;9.77;;;;;;;;;;10516066;28;20106;-70
2022/01/14 04:32:45;;;;;;;17.50;10.20;;;;;;;;;;10517959;28;20056;-70
2022/01/14 04:37:49;;;;;;;16.42;8.98;;;;;;;;;;10516996;28;20048;-69
2022/01/14 04:42:53;;;;;;;17.98;9.35;;;;;;;;;;10517732;28;20040;-70
2022/01/14 04:47:57;;;;;;;19.40;9.40;;;;;;;;;;10516300;28;20048;-69
2022/01/14 04:53:02;;;;;;;20.20;9.00;;;;;;;;;;10517509;28;20053;-70
2022/01/14 04:58:05;;;;;;;14.82;8.45;;;;;;;;;;10515073;28;20079;-69
2022/01/14 05:03:08;;;;;;;18.75;7.85;;;;;;;;;;10515930;28;20052;-70
2022/01/14 05:08:20;;;;;;;19.50;9.02;;;;;;;;;;10516238;28;20046;-70
2022/01/14 05:13:24;;;;;;;12.75;7.00;;;;;;;;;;10515360;28;20063;-70
2022/01/14 05:18:27;;;;;;;13.35;8.05;;;;;;;;;;10515822;28;20048;-70
2022/01/14 05:23:31;;;;;;;13.10;7.18;;;;;;;;;;10515734;28;20048;-69
2022/01/14 05:28:34;;;;;;;15.98;6.65;;;;;;;;;;10515712;28;20092;-70
2022/01/14 05:33:39;;;;;;;12.82;5.25;;;;;;;;;;10515220;28;20058;-70
2022/01/14 05:38:43;;;;;;;11.38;5.53;;;;;;;;;;10528397;28;20039;-71
2022/01/14 05:43:46;;;;;;;11.18;6.18;;;;;;;;;;10516064;28;20064;-70
2022/01/14 05:48:49;;;;;;;11.63;5.82;;;;;;;;;;10515359;28;20102;-71
2022/01/14 05:53:53;;;;;;;17.55;5.85;;;;;;;;;;10515486;28;20135;-71
2022/01/14 05:58:55;;;;;;;11.70;6.05;;;;;;;;;;10514570;28;20170;-71
2022/01/14 06:03:58;;;;;;;12.43;6.38;;;;;;;;;;10514441;28;20228;-70
2022/01/14 06:09:03;;;;;;;16.10;8.48;;;;;;;;;;10514392;28;20040;-71
2022/01/14 06:14:05;;;;;;;25.73;10.48;;;;;;;;;;10531555;28;20047;-70
2022/01/14 06:19:08;;;;;;;23.02;11.57;;;;;;;;;;10515458;28;20144;-70
2022/01/14 06:24:12;;;;;;;26.15;12.23;;;;;;;;;;10514729;28;20243;-70
2022/01/14 06:29:15;;;;;;;22.85;10.40;;;;;;;;;;10514726;28;20041;-71
2022/01/14 06:34:18;;;;;;;38.53;15.50;;;;;;;;;;10532464;28;20351;-71
2022/01/14 06:39:22;;;;;;;16.60;9.93;;;;;;;;;;10555954;28;20048;-70
2022/01/14 06:44:25;;;;;;;18.35;10.65;;;;;;;;;;10520323;28;20279;-72
2022/01/14 06:49:28;;;;;;;21.95;9.80;;;;;;;;;;10515987;28;20041;-70
2022/01/14 06:54:35;;;;;;;24.60;10.20;;;;;;;;;;10513836;28;20348;-70
2022/01/14 06:59:37;;;;;;;18.88;8.27;;;;;;;;;;10509022;28;20064;-70
2022/01/14 07:04:40;;;;;;;17.98;9.45;;;;;;;;;;10553437;28;20044;-73
2022/01/14 07:09:56;;;;;;;14.10;7.80;;;;;;;;;;10553876;28;20047;-71
2022/01/14 07:14:59;;;;;;;15.68;8.25;;;;;;;;;;10538027;28;20047;-69
2022/01/14 07:20:07;;;;;;;15.52;9.40;;;;;;;;;;10518874;28;20060;-71
2022/01/14 07:25:11;;;;;;;18.20;12.20;;;;;;;;;;10534369;28;20086;-69
2022/01/14 07:30:15;;;;;;;24.17;11.45;;;;;;;;;;10560135;28;20370;-72
2022/01/14 07:35:19;;;;;;;14.88;9.57;;;;;;;;;;10528961;28;20052;-71
2022/01/14 07:40:23;;;;;;;24.83;11.63;;;;;;;;;;10528083;28;20052;-71
2022/01/14 07:45:28;;;;;;;16.55;9.77;;;;;;;;;;10554967;28;20352;-70
2022/01/14 07:50:31;;;;;;;18.67;10.15;;;;;;;;;;10519133;28;20044;-70
2022/01/14 07:55:37;;;;;;;21.33;12.48;;;;;;;;;;10535641;28;20056;-72
2022/01/14 08:00:40;;;;;;;28.23;14.27;;;;;;;;;;10572431;28;20266;-72
2022/01/14 08:05:44;;;;;;;17.73;10.95;;;;;;;;;;10552920;28;20082;-73
2022/01/14 08:10:49;;;;;;;23.85;13.48;;;;;;;;;;10539517;28;20040;-71
2022/01/14 08:15:52;;;;;;;22.83;11.47;;;;;;;;;;10519953;28;20224;-72
2022/01/14 08:20:56;;;;;;;22.70;11.07;;;;;;;;;;10533613;28;20044;-70
2022/01/14 08:26:00;;;;;;;19.67;11.67;;;;;;;;;;10518513;28;20040;-69
2022/01/14 08:31:03;;;;;;;29.88;13.82;;;;;;;;;;10520468;28;20046;-69
2022/01/14 08:36:06;;;;;;;23.02;13.52;;;;;;;;;;10518544;28;20040;-72
2022/01/14 08:41:11;;;;;;;23.50;12.02;;;;;;;;;;10518625;28;20066;-72
2022/01/14 08:46:13;;;;;;;21.43;12.77;;;;;;;;;;10518859;28;20062;-69
2022/01/14 08:51:16;;;;;;;20.73;10.13;;;;;;;;;;10518278;28;20293;-72
2022/01/14 08:56:20;;;;;;;21.55;12.90;;;;;;;;;;10532591;28;20312;-70
2022/01/14 09:01:23;;;;;;;17.45;10.25;;;;;;;;;;10517878;28;20046;-71
2022/01/14 09:06:29;;;;;;;20.40;11.85;;;;;;;;;;10518437;28;20382;-73
2022/01/14 09:11:33;;;;;;;15.57;10.73;;;;;;;;;;10517122;28;20158;-71
2022/01/14 09:16:36;;;;;;;22.70;9.27;;;;;;;;;;10517891;28;20049;-72
2022/01/14 09:21:39;;;;;;;16.88;9.55;;;;;;;;;;10517282;28;20236;-71
2022/01/14 09:26:43;;;;;;;16.73;10.25;;;;;;;;;;10517654;28;20390;-70
2022/01/14 09:31:46;;;;;;;18.10;9.75;;;;;;;;;;10515291;28;20255;-71
2022/01/14 09:36:49;;;;;;;17.35;10.30;;;;;;;;;;10516055;28;20036;-72
2022/01/14 09:41:53;;;;;;;16.63;9.27;;;;;;;;;;10554702;28;20178;-74
2022/01/14 09:46:56;;;;;;;13.83;7.97;;;;;;;;;;10515896;28;20045;-72
2022/01/14 09:51:59;;;;;;;17.35;9.30;;;;;;;;;;10518496;28;20048;-71
2022/01/14 09:57:03;;;;;;;19.13;10.93;;;;;;;;;;10556971;28;20044;-71
2022/01/14 10:02:06;;;;;;;12.70;6.88;;;;;;;;;;10538453;28;20259;-72
2022/01/14 10:07:11;;;;;;;13.65;7.55;;;;;;;;;;10516156;28;20037;-71
2022/01/14 10:12:17;;;;;;;12.98;7.93;;;;;;;;;;10514275;28;20048;-72
2022/01/14 10:17:19;;;;;;;14.57;7.60;;;;;;;;;;10514693;28;20229;-72
2022/01/14 10:22:25;;;;;;;14.20;7.70;;;;;;;;;;10514804;28;20044;-72
2022/01/14 10:27:35;;;;;;;14.20;7.32;;;;;;;;;;10494650;28;20049;-72
2022/01/14 10:32:41;;;;;;;10.85;5.75;;;;;;;;;;10483089;28;20274;-71
2022/01/14 10:37:45;;;;;;;10.57;6.68;;;;;;;;;;10515267;28;20121;-74
2022/01/14 10:42:51;;;;;;;11.13;6.22;;;;;;;;;;10513063;28;20041;-70
2022/01/14 10:48:00;;;;;;;9.80;5.18;;;;;;;;;;10557332;28;20074;-70
2022/01/14 10:53:04;;;;;;;15.88;7.22;;;;;;;;;;10548443;28;20283;-70
2022/01/14 10:58:13;;;;;;;12.15;5.10;;;;;;;;;;10520292;28;20041;-73
2022/01/14 11:03:17;;;;;;;7.45;4.60;;;;;;;;;;10519776;28;20049;-72
2022/01/14 11:08:35;;;;;;;9.75;5.25;;;;;;;;;;10522532;28;20049;-72
2022/01/14 11:13:40;;;;;;;9.13;4.78;;;;;;;;;;10520865;28;20075;-72
2022/01/14 11:18:45;;;;;;;9.68;5.35;;;;;;;;;;10550057;28;20071;-70
2022/01/14 11:23:48;;;;;;;12.93;5.30;;;;;;;;;;10564373;28;20332;-72
2022/01/14 11:28:52;;;;;;;20.95;7.40;;;;;;;;;;10520520;28;20048;-69
2022/01/14 11:33:55;;;;;;;11.48;5.72;;;;;;;;;;10549915;28;20047;-71
2022/01/14 11:38:58;;;;;;;17.92;7.55;;;;;;;;;;10520586;28;20409;-72
2022/01/14 11:44:07;;;;;;;21.65;7.15;;;;;;;;;;10520973;28;20052;-73
2022/01/14 11:49:31;;;;;;;21.70;7.25;;;;;;;;;;10532600;28;20216;-70
2022/01/14 11:54:41;;;;;;;9.95;4.95;;;;;;;;;;10520653;28;20036;-72
2022/01/14 11:59:48;;;;;;;8.27;5.10;;;;;;;;;;10518043;28;20351;-70
2022/01/14 12:05:08;;;;;;;14.50;5.63;;;;;;;;;;10533786;28;20044;-73
2022/01/14 12:10:10;;;;;;;9.48;4.68;;;;;;;;;;10532736;28;20100;-72
2022/01/14 12:15:47;;;;;;;12.13;5.05;;;;;;;;;;10519718;28;20354;-72
2022/01/14 12:20:50;;;;;;;6.93;3.80;;;;;;;;;;10517829;28;20047;-73
2022/01/14 12:25:52;;;;;;;7.47;3.85;;;;;;;;;;10518986;28;20095;-72
2022/01/14 12:31:02;;;;;;;7.32;3.80;;;;;;;;;;10517681;28;20044;-72
2022/01/14 12:36:10;;;;;;;7.47;3.65;;;;;;;;;;10522522;28;20052;-72
2022/01/14 12:41:16;;;;;;;9.32;4.57;;;;;;;;;;10531240;28;20277;-72
2022/01/14 12:46:35;;;;;;;9.45;4.07;;;;;;;;;;10518017;28;20220;-72
2022/01/14 12:51:39;;;;;;;7.78;3.75;;;;;;;;;;10516146;28;20057;-72
2022/01/14 12:56:41;;;;;;;8.23;3.95;;;;;;;;;;10475189;28;20071;-70
2022/01/14 13:01:50;;;;;;;8.63;3.95;;;;;;;;;;10506520;28;20062;-71
2022/01/14 13:06:54;;;;;;;8.60;4.07;;;;;;;;;;10530214;28;20328;-73
2022/01/14 13:11:59;;;;;;;6.63;3.90;;;;;;;;;;10516889;28;20058;-73
2022/01/14 13:17:04;;;;;;;;;;;;;;;;;;10537875;28;20052;-70
2022/01/14 13:22:09;;;;;;;11.60;4.23;;;;;;;;;;10541385;28;19953;-70
2022/01/14 13:27:14;;;;;;;7.60;3.57;;;;;;;;;;10515499;28;20589;-72
2022/01/14 13:32:20;;;;;;;11.35;4.18;;;;;;;;;;10536598;28;20048;-72
2022/01/14 13:37:24;;;;;;;10.23;4.18;;;;;;;;;;10515616;28;20150;-71
2022/01/14 13:42:27;;;;;;;13.57;4.45;;;;;;;;;;10529485;28;20052;-72
2022/01/14 13:47:34;;;;;;;13.38;4.07;;;;;;;;;;10544010;28;20061;-70
2022/01/14 13:52:36;;;;;;;12.93;3.10;;;;;;;;;;10528266;28;20040;-71
2022/01/14 13:57:39;;;;;;;9.32;3.03;;;;;;;;;;10515583;28;20350;-72
2022/01/14 14:02:52;;;;;;;8.65;2.45;;;;;;;;;;10548711;28;20243;-71
2022/01/14 14:08:06;;;;;;;5.80;2.72;;;;;;;;;;10555639;28;20075;-71
2022/01/14 14:13:29;;;;;;;6.53;2.60;;;;;;;;;;10521891;28;20068;-71
2022/01/14 14:18:41;;;;;;;6.57;2.45;;;;;;;;;;10475271;28;20071;-73
2022/01/14 14:23:55;;;;;;;8.07;2.47;;;;;;;;;;10521390;28;20066;-71
2022/01/14 14:28:59;;;;;;;12.45;2.53;;;;;;;;;;10541773;28;20035;-71
2022/01/14 14:34:03;;;;;;;8.50;2.78;;;;;;;;;;10536497;28;20171;-72
2022/01/14 14:39:06;;;;;;;10.30;2.50;;;;;;;;;;10523713;28;20061;-73
2022/01/14 14:44:09;;;;;;;8.60;2.30;;;;;;;;;;10518313;28;20359;-70
2022/01/14 14:49:13;;;;;;;9.02;2.70;;;;;;;;;;10516579;28;20044;-71
2022/01/14 14:54:15;;;;;;;10.73;3.40;;;;;;;;;;10521297;28;20043;-71
2022/01/14 14:59:18;;;;;;;6.97;2.47;;;;;;;;;;10522314;28;20270;-72
2022/01/14 15:04:22;;;;;;;12.32;3.42;;;;;;;;;;10540496;28;20358;-72
2022/01/14 15:09:24;;;;;;;11.10;2.80;;;;;;;;;;10564468;28;20040;-72
2022/01/14 15:14:27;;;;;;;11.55;3.45;;;;;;;;;;10557430;28;20064;-71
2022/01/14 15:19:32;;;;;;;15.90;3.78;;;;;;;;;;10522490;28;20052;-71
2022/01/14 15:24:34;;;;;;;17.80;3.20;;;;;;;;;;10521217;28;20374;-72
2022/01/14 15:29:37;;;;;;;8.45;2.85;;;;;;;;;;10518734;28;20065;-72
2022/01/14 15:34:41;;;;;;;13.68;3.55;;;;;;;;;;10520186;28;20040;-71
2022/01/14 15:39:43;;;;;;;9.43;3.42;;;;;;;;;;10519832;28;20113;-69
2022/01/14 15:45:12;;;;;;;13.93;3.60;;;;;;;;;;10521373;28;20048;-72
2022/01/14 15:50:43;;;;;;;13.48;4.10;;;;;;;;;;10521064;28;20049;-71
2022/01/14 16:19:36;;;;;;;17.63;4.38;;;;;;;;;;10508885;28;20336;-70
2022/01/14 16:30:04;;;;;;;17.48;5.50;;;;;;;;;;12177037;23;20207;-70
2022/01/14 16:35:09;;;;;;;15.13;3.87;;;;;;;;;;10217562;23;20063;-66
2022/01/14 16:40:13;;;;;;;15.73;4.47;;;;;;;;;;10197664;29;20055;-68
2022/01/14 16:45:16;;;;;;;18.17;5.45;;;;;;;;;;10195504;29;20040;-68
2022/01/14 16:50:22;;;;;;;20.95;5.38;;;;;;;;;;10195157;29;20386;-67
2022/01/14 16:55:24;;;;;;;20.23;5.93;;;;;;;;;;10195991;29;20243;-69
2022/01/14 17:00:30;;;;;;;29.55;6.10;;;;;;;;;;10193990;29;20248;-70
2022/01/14 17:05:33;;;;;;;20.50;5.40;;;;;;;;;;10200422;29;20213;-69
2022/01/14 17:10:35;;;;;;;26.00;6.15;;;;;;;;;;10194149;29;20254;-69
2022/01/14 17:15:39;;;;;;;35.80;12.75;;;;;;;;;;10195319;29;20047;-67
2022/01/14 17:20:42;;;;;;;29.48;8.52;;;;;;;;;;10195219;29;20397;-70
2022/01/14 17:25:44;;;;;;;38.08;9.45;;;;;;;;;;10192290;29;20048;-68
2022/01/14 17:30:48;;;;;;;38.17;10.80;;;;;;;;;;10195422;29;20056;-68
2022/01/14 17:35:50;;;;;;;34.17;8.52;;;;;;;;;;10194303;29;20059;-70
2022/01/14 17:40:57;;;;;;;41.65;9.57;;;;;;;;;;10193478;29;20040;-68
2022/01/14 17:46:01;;;;;;;30.38;8.57;;;;;;;;;;10206640;29;20233;-68
2022/01/14 17:51:04;;;;;;;33.67;8.02;;;;;;;;;;10193708;29;20039;-70
2022/01/14 17:56:06;;;;;;;35.70;8.35;;;;;;;;;;10193082;29;20063;-67
2022/01/14 18:01:11;;;;;;;36.70;7.68;;;;;;;;;;10192023;29;20291;-71
2022/01/14 18:06:13;;;;;;;25.25;6.60;;;;;;;;;;10193821;29;20059;-68
2022/01/14 18:11:24;;;;;;;35.92;7.68;;;;;;;;;;10192193;29;20068;-67
2022/01/14 18:16:28;;;;;;;26.73;6.80;;;;;;;;;;10193266;29;20059;-68
2022/01/14 18:21:31;;;;;;;27.27;5.75;;;;;;;;;;10177574;29;20044;-67
2022/01/14 18:26:35;;;;;;;32.22;6.78;;;;;;;;;;10190253;29;20056;-69
2022/01/14 18:31:39;;;;;;;35.90;7.85;;;;;;;;;;10193416;29;20048;-68
2022/01/14 18:36:42;;;;;;;30.05;6.50;;;;;;;;;;10209039;29;20040;-70
2022/01/14 18:41:45;;;;;;;26.70;7.00;;;;;;;;;;10192931;29;20238;-70
2022/01/14 18:46:48;;;;;;;25.77;6.53;;;;;;;;;;10192554;29;20051;-69
2022/01/14 18:51:51;;;;;;;32.13;6.55;;;;;;;;;;10193584;29;20095;-67
2022/01/14 18:56:57;;;;;;;37.25;7.53;;;;;;;;;;10195706;29;20051;-66
2022/01/14 19:02:01;;;;;;;27.83;6.43;;;;;;;;;;10207333;29;20044;-69
2022/01/14 19:07:03;;;;;;;34.72;6.90;;;;;;;;;;10191970;29;20056;-68
2022/01/14 19:12:07;;;;;;;43.45;9.82;;;;;;;;;;10193043;29;20040;-70
2022/01/14 19:17:10;;;;;;;38.92;8.35;;;;;;;;;;10194916;29;20054;-70
2022/01/14 19:22:15;;;;;;;36.60;7.25;;;;;;;;;;10209917;29;20050;-69
2022/01/14 19:27:18;;;;;;;47.47;8.52;;;;;;;;;;10240205;29;20216;-70
2022/01/14 19:32:22;;;;;;;52.58;11.88;;;;;;;;;;10234738;28;20351;-69
2022/01/14 19:37:24;;;;;;;50.78;10.10;;;;;;;;;;10200092;29;20119;-70
2022/01/14 19:42:27;;;;;;;56.70;9.90;;;;;;;;;;10201723;29;20052;-68
2022/01/14 19:47:34;;;;;;;49.45;10.93;;;;;;;;;;10198121;29;20055;-68
2022/01/14 19:52:36;;;;;;;47.03;11.52;;;;;;;;;;10211069;29;20073;-70
2022/01/14 19:57:40;;;;;;;47.90;10.07;;;;;;;;;;10198321;29;20063;-67
2022/01/14 20:02:45;;;;;;;33.40;6.80;;;;;;;;;;10198889;29;20044;-69
2022/01/14 20:07:48;;;;;;;36.55;7.57;;;;;;;;;;10213405;29;20044;-68
2022/01/14 20:12:50;;;;;;;35.25;7.82;;;;;;;;;;10198384;29;20238;-69
2022/01/14 20:17:54;;;;;;;49.17;10.52;;;;;;;;;;10192792;29;20056;-69
2022/01/14 20:22:56;;;;;;;34.10;8.52;;;;;;;;;;10158999;29;20372;-68
2022/01/14 20:27:59;;;;;;;34.85;8.73;;;;;;;;;;10212762;29;20051;-69
2022/01/14 20:33:03;;;;;;;39.17;9.02;;;;;;;;;;10229421;29;20327;-69
2022/01/14 20:38:06;;;;;;;42.40;13.25;;;;;;;;;;10196715;29;20059;-68
2022/01/14 20:43:08;;;;;;;42.97;7.88;;;;;;;;;;10197105;29;20048;-69
2022/01/14 20:48:12;;;;;;;37.80;7.45;;;;;;;;;;10197219;29;20243;-68
2022/01/14 20:53:15;;;;;;;41.38;9.50;;;;;;;;;;10197090;29;20054;-69
2022/01/14 20:58:22;;;;;;;37.72;8.55;;;;;;;;;;10196650;29;20076;-68
2022/01/14 21:03:26;;;;;;;42.10;10.48;;;;;;;;;;10208777;29;20048;-67
2022/01/14 21:08:28;;;;;;;46.97;8.73;;;;;;;;;;10195668;29;20052;-69
2022/01/14 21:13:30;;;;;;;46.63;9.15;;;;;;;;;;10195029;29;20084;-67
2022/01/14 21:18:34;;;;;;;46.20;8.07;;;;;;;;;;10195811;29;20036;-68
2022/01/14 21:23:36;;;;;;;29.58;7.57;;;;;;;;;;10194493;29;20072;-69
2022/01/14 21:28:39;;;;;;;39.08;9.48;;;;;;;;;;10196642;29;20044;-69
2022/01/14 21:33:44;;;;;;;46.35;8.52;;;;;;;;;;10193747;29;20397;-68
2022/01/14 21:38:47;;;;;;;43.10;9.02;;;;;;;;;;10191224;29;20063;-67
2022/01/14 21:43:49;;;;;;;35.60;8.63;;;;;;;;;;10195302;29;20263;-68
2022/01/14 21:48:53;;;;;;;39.20;8.82;;;;;;;;;;10194914;29;20083;-68
2022/01/14 21:53:55;;;;;;;44.70;9.10;;;;;;;;;;10192880;29;20052;-69
2022/01/14 21:58:59;;;;;;;42.38;8.45;;;;;;;;;;10194487;29;20051;-69
2022/01/14 22:04:03;;;;;;;41.13;8.23;;;;;;;;;;10161222;29;20048;-68
2022/01/14 22:09:05;;;;;;;32.15;7.55;;;;;;;;;;10174661;29;20052;-68
2022/01/14 22:14:11;;;;;;;47.53;9.05;;;;;;;;;;10193975;29;20055;-68
2022/01/14 22:19:15;;;;;;;;;;;;;;;;;;10194063;29;20238;-69
2022/01/14 22:24:18;;;;;;;38.85;7.15;;;;;;;;;;10191717;29;19934;-69
2022/01/14 22:29:20;;;;;;;47.03;8.00;;;;;;;;;;10193832;29;20048;-68
2022/01/14 22:34:24;;;;;;;44.78;7.70;;;;;;;;;;10192180;29;20072;-70
2022/01/14 22:39:27;;;;;;;31.92;7.10;;;;;;;;;;10190468;29;20175;-70
2022/01/14 22:44:29;;;;;;;26.17;6.30;;;;;;;;;;10153655;29;20044;-69
2022/01/14 22:49:33;;;;;;;38.22;7.28;;;;;;;;;;10167603;29;20051;-69
2022/01/14 22:54:35;;;;;;;45.33;7.55;;;;;;;;;;10181116;29;20063;-67
2022/01/14 22:59:37;;;;;;;36.38;7.90;;;;;;;;;;10176499;29;20354;-69
2022/01/14 23:04:41;;;;;;;29.73;6.80;;;;;;;;;;10170601;29;20068;-69
2022/01/14 23:09:44;;;;;;;39.67;7.88;;;;;;;;;;10168158;29;20045;-70
2022/01/14 23:14:46;;;;;;;43.80;8.57;;;;;;;;;;10165586;29;20092;-71
2022/01/14 23:19:50;;;;;;;31.65;7.68;;;;;;;;;;10170631;29;20100;-67
2022/01/14 23:24:52;;;;;;;36.60;7.28;;;;;;;;;;10165321;29;20074;-71
2022/01/14 23:29:54;;;;;;;40.65;8.00;;;;;;;;;;10187730;29;20299;-67
2022/01/14 23:34:58;;;;;;;36.90;7.63;;;;;;;;;;10199135;29;20052;-70
2022/01/14 23:40:01;;;;;;;33.53;7.75;;;;;;;;;;10199173;29;20055;-67
2022/01/14 23:45:23;;;;;;;34.10;6.30;;;;;;;;;;10198000;29;20048;-67
2022/01/14 23:50:28;;;;;;;40.00;7.22;;;;;;;;;;10198454;29;20270;-70
2022/01/14 23:55:31;;;;;;;33.58;6.85;;;;;;;;;;10197397;29;20084;-67
